GKY weather

Arlington Municipal Airport
Arlington, Texas, United States

Public forecast

Using degrees Fahrenheit for public forecast. Weather courtesy of forecast.io.

METAR (pilot weather report)

Retrieved 2019/05/22 05:53 UTC (13 minutes ago):

KGKY 220553Z AUTO 15009KT 10SM CLR 20/16 A2970 RMK AO2 SLP049 T02000156 10283 20189 402890189 51011

TAF (pilot weather forecast)

Retrieved 2019/05/22 06:22 UTC (0 seconds ago):

TAF KGKY 220520Z 2206/2306 20008KT P6SM BKN300 FM221100 17016KT P6SM BKN015 FM221500 17015G25KT P6SM SCT020 BKN040 FM230200 16015KT P6SM BKN035